createdAt,value
2018-05-21T00:00:48.041Z,6.80
2018-05-21T00:03:15.682Z,5.87
2018-05-21T00:05:43.251Z,6.13
2018-05-21T00:08:10.830Z,6.63
2018-05-21T00:10:38.413Z,6.53
2018-05-21T00:13:06.002Z,6.53
2018-05-21T00:15:33.665Z,6.60
2018-05-21T00:18:01.302Z,6.80
2018-05-21T00:20:28.869Z,6.70
2018-05-21T00:22:56.445Z,7.60
2018-05-21T00:25:24.087Z,6.30
2018-05-21T00:27:51.657Z,6.10
2018-05-21T00:30:19.433Z,6.17
2018-05-21T00:32:47.204Z,6.00
2018-05-21T00:35:15.079Z,6.77
2018-05-21T00:37:42.812Z,6.13
2018-05-21T00:40:10.563Z,6.60
2018-05-21T00:42:38.313Z,6.53
2018-05-21T00:45:06.055Z,6.07
2018-05-21T00:47:33.840Z,5.40
2018-05-21T00:50:01.568Z,7.00
2018-05-21T00:52:29.368Z,5.80
2018-05-21T00:55:09.009Z,5.17
2018-05-21T00:57:36.868Z,5.20
2018-05-21T01:00:04.724Z,6.10
2018-05-21T01:02:32.463Z,6.50
2018-05-21T01:05:00.228Z,5.70
2018-05-21T01:07:27.952Z,7.07
2018-05-21T01:09:55.791Z,6.80
2018-05-21T01:12:23.536Z,6.97
2018-05-21T01:14:51.351Z,6.60
2018-05-21T01:17:19.757Z,7.50
2018-05-21T01:19:47.505Z,6.60
2018-05-21T01:22:15.256Z,7.27
2018-05-21T01:24:43.032Z,6.93
2018-05-21T01:27:10.816Z,6.90
2018-05-21T01:29:38.559Z,7.33
2018-05-21T01:32:06.372Z,6.97
2018-05-21T01:34:34.207Z,7.87
2018-05-21T01:37:01.959Z,7.97
2018-05-21T01:39:29.731Z,9.97
2018-05-21T01:41:57.489Z,7.43
2018-05-21T01:44:25.272Z,7.47
2018-05-21T01:46:53.024Z,6.90
2018-05-21T01:49:20.819Z,7.23
2018-05-21T01:51:48.545Z,7.17
2018-05-21T01:54:16.274Z,8.07
2018-05-21T01:56:44.049Z,9.00
2018-05-21T01:59:11.621Z,7.93
2018-05-21T02:01:39.253Z,8.67
2018-05-21T02:04:06.881Z,6.60
2018-05-21T02:06:34.452Z,7.30
2018-05-21T02:09:02.032Z,6.40
2018-05-21T02:11:29.661Z,5.90
2018-05-21T02:13:57.239Z,7.47
2018-05-21T02:16:24.936Z,7.47
2018-05-21T02:18:52.538Z,7.30
2018-05-21T02:21:20.102Z,6.77
2018-05-21T02:23:47.677Z,7.60
2018-05-21T02:26:15.317Z,7.03
2018-05-21T02:28:42.885Z,7.60
2018-05-21T02:31:10.466Z,7.60
2018-05-21T02:33:38.029Z,7.30
2018-05-21T02:36:05.653Z,7.00
2018-05-21T02:38:33.237Z,7.60
2018-05-21T02:41:00.869Z,8.40
2018-05-21T02:43:28.446Z,7.77
2018-05-21T02:45:56.012Z,8.40
2018-05-21T02:48:23.589Z,7.63
2018-05-21T02:50:51.226Z,8.33
2018-05-21T02:53:18.850Z,9.20
2018-05-21T02:55:46.422Z,9.33
2018-05-21T02:58:14.054Z,9.00
2018-05-21T03:00:41.630Z,9.20
2018-05-21T03:03:09.213Z,9.40
2018-05-21T03:05:36.842Z,11.00
2018-05-21T03:08:04.415Z,9.50
2018-05-21T03:10:32.083Z,9.77
2018-05-21T03:12:59.669Z,7.40
2018-05-21T03:15:27.245Z,7.47
2018-05-21T03:17:54.949Z,8.20
2018-05-21T03:20:22.512Z,7.90
2018-05-21T03:22:50.084Z,8.10
2018-05-21T03:25:17.685Z,7.57
2018-05-21T03:27:45.256Z,8.97
2018-05-21T03:30:12.887Z,8.30
2018-05-21T03:32:40.466Z,7.90
2018-05-21T03:35:08.037Z,6.80
2018-05-21T03:37:35.616Z,7.80
2018-05-21T03:40:03.241Z,5.73
2018-05-21T03:42:30.816Z,8.70
2018-05-21T03:44:58.375Z,7.00
2018-05-21T03:47:25.996Z,7.40
2018-05-21T03:49:53.625Z,7.90
2018-05-21T03:52:21.189Z,6.73
2018-05-21T03:54:48.834Z,8.77
2018-05-21T03:57:16.400Z,7.83
2018-05-21T04:02:59.128Z,6.73
2018-05-21T04:05:26.708Z,7.40
2018-05-21T04:07:54.305Z,6.70
2018-05-21T04:10:21.945Z,7.73
2018-05-21T04:12:49.513Z,7.13
2018-05-21T04:15:17.196Z,7.90
2018-05-21T04:17:44.760Z,7.37
2018-05-21T04:20:12.328Z,7.63
2018-05-21T04:22:39.927Z,7.67
2018-05-21T04:25:07.484Z,5.90
2018-05-21T04:27:35.125Z,5.70
2018-05-21T04:30:02.693Z,5.93
2018-05-21T04:32:30.316Z,5.60
2018-05-21T04:34:57.889Z,5.57
2018-05-21T04:37:25.535Z,6.57
2018-05-21T04:39:53.115Z,6.10
2018-05-21T04:42:20.829Z,5.63
2018-05-21T04:44:48.396Z,5.70
2018-05-21T04:47:16.169Z,4.67
2018-05-21T04:49:43.789Z,5.67
2018-05-21T04:52:11.431Z,4.73
2018-05-21T04:54:38.996Z,5.37
2018-05-21T04:57:06.625Z,4.50
2018-05-21T04:59:34.171Z,5.30
2018-05-21T05:02:01.801Z,4.80
2018-05-21T05:04:29.424Z,6.00
2018-05-21T05:06:57.087Z,5.00
2018-05-21T05:09:24.711Z,4.93
2018-05-21T05:11:52.284Z,4.93
2018-05-21T05:14:19.912Z,3.97
2018-05-21T05:16:47.480Z,4.83
2018-05-21T05:19:15.111Z,4.33
2018-05-21T05:21:42.738Z,3.17
2018-05-21T05:24:10.432Z,3.10
2018-05-21T05:26:38.095Z,3.67
2018-05-21T05:29:05.663Z,3.47
2018-05-21T05:31:33.237Z,3.73
2018-05-21T05:34:00.808Z,4.03
2018-05-21T05:36:28.384Z,3.90
2018-05-21T05:38:55.958Z,3.87
2018-05-21T05:41:23.571Z,4.43
2018-05-21T05:43:51.133Z,4.17
2018-05-21T05:46:18.734Z,4.30
2018-05-21T05:48:46.318Z,4.27
2018-05-21T05:51:13.901Z,4.30
2018-05-21T05:53:41.483Z,3.77
2018-05-21T05:56:09.105Z,4.37
2018-05-21T05:58:36.785Z,5.20
2018-05-21T06:01:04.413Z,4.00
2018-05-21T06:03:32.036Z,4.23
2018-05-21T06:05:59.624Z,3.90
2018-05-21T06:08:27.238Z,4.47
2018-05-21T06:10:54.829Z,4.40
2018-05-21T06:13:22.400Z,4.00
2018-05-21T06:15:50.033Z,4.60
2018-05-21T06:18:17.609Z,4.93
2018-05-21T06:20:45.176Z,4.70
2018-05-21T06:23:12.805Z,5.10
2018-05-21T06:25:40.404Z,4.87
2018-05-21T06:28:07.977Z,5.93
2018-05-21T06:30:35.603Z,4.60
2018-05-21T06:33:03.275Z,5.40
2018-05-21T06:35:30.835Z,4.47
2018-05-21T06:37:58.395Z,5.17
2018-05-21T06:40:25.968Z,5.00
2018-05-21T06:42:53.531Z,5.40
2018-05-21T06:45:21.109Z,5.23
2018-05-21T06:47:48.756Z,5.30
2018-05-21T06:50:16.315Z,5.47
2018-05-21T06:52:43.886Z,5.33
2018-05-21T06:55:11.454Z,5.53
2018-05-21T06:57:39.032Z,6.07
2018-05-21T07:00:06.598Z,5.90
2018-05-21T07:02:34.242Z,5.17
2018-05-21T07:05:01.894Z,5.37
2018-05-21T07:07:29.528Z,5.70
2018-05-21T07:09:57.148Z,6.53
2018-05-21T07:12:24.713Z,6.20
2018-05-21T07:14:52.302Z,6.53
2018-05-21T07:17:19.873Z,5.60
2018-05-21T07:19:47.574Z,5.07
2018-05-21T07:22:15.225Z,5.90
2018-05-21T07:24:42.801Z,5.40
2018-05-21T07:27:10.377Z,5.63
2018-05-21T07:29:37.936Z,5.23
2018-05-21T07:32:05.509Z,5.33
2018-05-21T07:34:33.130Z,5.20
2018-05-21T07:37:00.688Z,5.50
2018-05-21T07:39:28.346Z,6.80
2018-05-21T07:41:55.987Z,5.90
2018-05-21T07:44:23.573Z,5.93
2018-05-21T07:46:51.135Z,5.20
2018-05-21T07:49:18.750Z,5.80
2018-05-21T07:51:46.316Z,5.40
2018-05-21T07:54:13.887Z,4.67
2018-05-21T07:56:41.470Z,4.40
2018-05-21T07:59:09.042Z,4.53
2018-05-21T08:01:36.634Z,5.30
2018-05-21T08:04:04.244Z,4.87
2018-05-21T08:06:31.878Z,4.17
2018-05-21T08:08:59.516Z,3.90
2018-05-21T08:11:27.077Z,4.07
2018-05-21T08:13:54.655Z,4.90
2018-05-21T08:16:22.212Z,4.37
2018-05-21T08:18:49.845Z,4.43
2018-05-21T08:21:17.468Z,3.43
2018-05-21T08:23:45.138Z,3.87
2018-05-21T08:26:12.705Z,4.07
2018-05-21T08:28:40.328Z,4.10
2018-05-21T08:31:07.953Z,4.17
2018-05-21T08:33:35.569Z,3.17
2018-05-21T08:36:03.201Z,3.93
2018-05-21T08:38:30.835Z,3.73
2018-05-21T08:40:58.531Z,3.07
2018-05-21T08:43:26.161Z,4.40
2018-05-21T08:45:53.735Z,3.77
2018-05-21T08:48:21.414Z,3.40
2018-05-21T08:50:49.031Z,3.10
2018-05-21T08:53:16.653Z,3.30
2018-05-21T08:55:44.270Z,4.00
2018-05-21T08:58:11.900Z,3.93
2018-05-21T09:00:39.467Z,3.70
2018-05-21T09:03:07.028Z,3.50
2018-05-21T09:05:34.597Z,3.33
2018-05-21T09:08:02.171Z,3.40
2018-05-21T09:10:29.877Z,4.87
2018-05-21T09:12:57.440Z,3.33
2018-05-21T09:15:25.000Z,4.20
2018-05-21T09:17:52.637Z,3.33
2018-05-21T09:20:20.204Z,3.27
2018-05-21T09:22:47.832Z,4.33
2018-05-21T09:25:15.448Z,3.60
2018-05-21T09:27:43.073Z,3.33
2018-05-21T09:30:10.701Z,3.70
2018-05-21T09:32:38.328Z,3.67
2018-05-21T09:35:05.882Z,3.07
2018-05-21T09:37:33.440Z,3.80
2018-05-21T09:40:01.061Z,3.30
2018-05-21T09:42:28.621Z,3.10
2018-05-21T09:44:56.248Z,3.03
2018-05-21T09:47:23.821Z,3.10
2018-05-21T09:49:51.404Z,2.73
2018-05-21T09:52:18.970Z,2.60
2018-05-21T09:54:46.546Z,2.77
2018-05-21T09:57:14.227Z,3.07
2018-05-21T09:59:41.901Z,3.30
2018-05-21T10:02:09.530Z,2.17
2018-05-21T10:04:37.165Z,1.93
2018-05-21T10:07:04.730Z,2.17
2018-05-21T10:09:32.365Z,3.10
2018-05-21T10:11:59.991Z,2.87
2018-05-21T10:14:27.597Z,2.37
2018-05-21T10:16:55.156Z,2.10
2018-05-21T10:19:22.875Z,2.53
2018-05-21T10:21:50.392Z,2.60
2018-05-21T10:24:17.981Z,2.57
2018-05-21T10:26:45.553Z,2.30
2018-05-21T10:29:13.177Z,2.53
2018-05-21T10:31:40.869Z,2.10
2018-05-21T10:34:08.437Z,2.10
2018-05-21T10:36:36.009Z,2.77
2018-05-21T10:39:03.748Z,2.60
2018-05-21T10:41:31.370Z,2.47
2018-05-21T10:43:59.022Z,2.53
2018-05-21T10:46:26.593Z,2.80
2018-05-21T10:48:54.222Z,2.90
2018-05-21T10:51:21.871Z,2.73
2018-05-21T10:53:49.388Z,2.57
2018-05-21T10:56:17.026Z,2.73
2018-05-21T10:58:44.609Z,3.43
2018-05-21T11:01:12.293Z,2.90
2018-05-21T11:03:39.876Z,3.37
2018-05-21T11:06:07.562Z,2.53
2018-05-21T11:08:35.198Z,2.50
2018-05-21T11:11:02.762Z,2.67
2018-05-21T11:13:30.408Z,2.30
2018-05-21T11:15:58.034Z,2.77
2018-05-21T11:18:25.620Z,3.00
2018-05-21T11:20:53.184Z,2.77
2018-05-21T11:23:20.869Z,2.60
2018-05-21T11:25:48.437Z,2.53
2018-05-21T11:28:16.021Z,2.70
2018-05-21T11:30:43.584Z,2.43
2018-05-21T11:33:11.148Z,2.73
2018-05-21T11:35:38.777Z,2.70
2018-05-21T11:38:06.405Z,2.83
2018-05-21T11:40:34.077Z,2.70
2018-05-21T11:43:01.713Z,3.13
2018-05-21T11:45:29.277Z,3.10
2018-05-21T11:47:56.848Z,3.47
2018-05-21T11:50:24.414Z,2.53
2018-05-21T11:52:51.984Z,3.10
2018-05-21T11:55:19.556Z,3.07
2018-05-21T11:57:47.176Z,3.30
2018-05-21T12:00:14.750Z,3.77
2018-05-21T12:02:42.347Z,3.23
2018-05-21T12:05:09.920Z,3.20
2018-05-21T12:07:37.577Z,2.77
2018-05-21T12:10:05.157Z,3.53
2018-05-21T12:12:32.711Z,3.60
2018-05-21T12:15:00.324Z,3.33
2018-05-21T12:17:27.880Z,3.20
2018-05-21T12:19:55.444Z,3.07
2018-05-21T12:22:23.077Z,3.10
2018-05-21T12:24:50.615Z,3.10
2018-05-21T12:27:18.249Z,2.83
2018-05-21T12:29:45.821Z,3.10
2018-05-21T12:32:13.456Z,2.53
2018-05-21T12:34:41.038Z,2.50
2018-05-21T12:37:08.670Z,2.00
2018-05-21T12:39:36.285Z,2.30
2018-05-21T12:42:03.905Z,2.47
2018-05-21T12:44:31.537Z,2.37
2018-05-21T12:46:59.191Z,2.15
2018-05-21T12:49:26.769Z,2.90
2018-05-21T12:51:54.337Z,2.15
2018-05-21T12:54:21.977Z,2.53
2018-05-21T12:56:49.628Z,3.43
2018-05-21T12:59:17.206Z,2.17
2018-05-21T13:01:44.841Z,2.20
2018-05-21T13:04:12.468Z,2.10
2018-05-21T13:06:40.101Z,2.80
2018-05-21T13:09:07.769Z,2.43
2018-05-21T13:11:35.332Z,2.17
2018-05-21T13:14:02.921Z,2.57
2018-05-21T13:16:30.485Z,2.17
2018-05-21T13:18:58.158Z,2.33
2018-05-21T13:21:25.713Z,1.87
2018-05-21T13:23:53.325Z,2.30
2018-05-21T13:26:20.902Z,1.95
2018-05-21T13:28:48.469Z,2.35
2018-05-21T13:31:16.109Z,2.13
2018-05-21T13:33:43.731Z,1.70
2018-05-21T13:36:11.345Z,2.13
2018-05-21T13:38:38.979Z,2.70
2018-05-21T13:41:06.607Z,2.10
2018-05-21T13:43:34.159Z,2.27
2018-05-21T13:46:01.732Z,2.50
2018-05-21T13:48:29.369Z,2.87
2018-05-21T13:50:57.039Z,3.00
2018-05-21T13:53:24.668Z,2.50
2018-05-21T13:55:52.226Z,3.30
2018-05-21T13:58:19.789Z,2.83
2018-05-21T14:00:47.348Z,2.90
2018-05-21T14:03:14.904Z,2.90
2018-05-21T14:05:42.539Z,2.90
2018-05-21T14:08:10.056Z,3.67
2018-05-21T14:10:37.593Z,3.00
2018-05-21T14:13:05.169Z,1.90
2018-05-21T14:15:32.729Z,2.50
2018-05-21T14:18:00.300Z,2.57
2018-05-21T14:20:27.893Z,2.63
2018-05-21T14:22:55.577Z,2.07
2018-05-21T14:25:23.195Z,2.70
2018-05-21T14:27:50.745Z,2.77
2018-05-21T14:30:18.312Z,3.50
2018-05-21T14:32:45.873Z,2.90
2018-05-21T14:35:13.460Z,2.97
2018-05-21T14:37:41.077Z,2.57
2018-05-21T14:40:08.705Z,2.87
2018-05-21T14:42:36.331Z,3.17
2018-05-21T14:45:03.892Z,2.50
2018-05-21T14:47:31.520Z,2.60
2018-05-21T14:49:59.073Z,3.23
2018-05-21T14:52:26.637Z,3.00
2018-05-21T14:54:54.228Z,2.77
2018-05-21T14:57:21.836Z,3.33
2018-05-21T14:59:49.401Z,3.63
2018-05-21T15:02:16.956Z,3.37
2018-05-21T15:04:44.521Z,2.83
2018-05-21T15:07:12.225Z,3.40
2018-05-21T15:09:39.863Z,3.23
2018-05-21T15:12:07.433Z,3.03
2018-05-21T15:14:34.996Z,3.50
2018-05-21T15:17:02.581Z,3.07
2018-05-21T15:19:30.247Z,2.87
2018-05-21T15:21:57.902Z,2.47
2018-05-21T15:26:59.363Z,3.30
2018-05-21T15:29:26.938Z,2.63
2018-05-21T15:31:54.557Z,3.10
2018-05-21T15:34:22.216Z,2.80
2018-05-21T15:36:49.778Z,2.97
2018-05-21T15:39:17.348Z,2.47
2018-05-21T15:41:44.909Z,2.30
2018-05-21T15:44:12.532Z,2.63
2018-05-21T15:46:40.185Z,3.20
2018-05-21T15:49:07.801Z,3.10
2018-05-21T15:51:35.424Z,2.60
2018-05-21T15:54:03.045Z,2.60
2018-05-21T15:56:30.631Z,3.07
2018-05-21T15:58:58.263Z,2.90
2018-05-21T16:01:25.966Z,3.03
2018-05-21T16:03:53.533Z,3.00
2018-05-21T16:06:21.097Z,2.90
2018-05-21T16:08:48.739Z,2.90
2018-05-21T16:11:16.368Z,3.47
2018-05-21T16:13:43.938Z,4.20
2018-05-21T16:16:11.490Z,3.60
2018-05-21T16:18:39.188Z,3.43
2018-05-21T16:21:06.759Z,3.73
2018-05-21T16:23:34.316Z,2.60
2018-05-21T16:26:01.884Z,2.77
2018-05-21T16:28:29.516Z,3.87
2018-05-21T16:30:57.153Z,3.50
2018-05-21T16:33:24.721Z,3.07
2018-05-21T16:35:52.368Z,2.67
2018-05-21T16:38:19.925Z,3.20
2018-05-21T16:40:47.488Z,2.70
2018-05-21T16:43:15.065Z,2.97
2018-05-21T16:45:42.692Z,3.27
2018-05-21T16:48:10.327Z,2.77
2018-05-21T16:50:37.946Z,2.50
2018-05-21T16:53:05.590Z,3.10
2018-05-21T16:55:33.209Z,3.40
2018-05-21T16:58:00.899Z,2.87
2018-05-21T17:00:28.564Z,2.87
2018-05-21T17:02:56.090Z,3.30
2018-05-21T17:05:23.716Z,3.17
2018-05-21T17:07:51.277Z,2.93
2018-05-21T17:10:18.948Z,3.13
2018-05-21T17:12:46.500Z,3.30
2018-05-21T17:15:14.135Z,2.80
2018-05-21T17:17:41.707Z,2.97
2018-05-21T17:20:09.287Z,2.67
2018-05-21T17:22:36.933Z,3.07
2018-05-21T17:25:04.531Z,2.77
2018-05-21T17:27:32.153Z,3.00
2018-05-21T17:29:59.719Z,3.10
2018-05-21T17:32:27.284Z,3.20
2018-05-21T17:34:54.881Z,2.70
2018-05-21T17:37:22.448Z,2.67
2018-05-21T17:39:50.021Z,2.80
2018-05-21T17:42:17.595Z,3.37
2018-05-21T17:44:45.216Z,2.90
2018-05-21T17:47:12.798Z,2.13
2018-05-21T17:49:40.354Z,2.63
2018-05-21T17:52:07.970Z,3.03
2018-05-21T17:54:35.598Z,2.90
2018-05-21T17:57:03.169Z,2.87
2018-05-21T17:59:30.802Z,3.10
2018-05-21T18:01:58.422Z,2.20
2018-05-21T18:04:25.986Z,2.77
2018-05-21T18:06:53.549Z,3.27
2018-05-21T18:09:21.128Z,2.63
2018-05-21T18:11:48.692Z,2.70
2018-05-21T18:14:16.285Z,2.80
2018-05-21T18:16:43.876Z,3.47
2018-05-21T18:19:11.501Z,2.87
2018-05-21T18:21:39.067Z,3.43
2018-05-21T18:24:06.633Z,2.97
2018-05-21T18:26:34.216Z,2.90
2018-05-21T18:29:01.852Z,3.13
2018-05-21T18:31:29.428Z,3.33
2018-05-21T18:33:56.999Z,3.03
2018-05-21T18:36:24.642Z,2.70
2018-05-21T18:38:52.209Z,2.80
2018-05-21T18:41:19.781Z,3.33
2018-05-21T18:43:47.373Z,3.30
2018-05-21T18:46:14.944Z,2.90
2018-05-21T18:48:42.584Z,2.60
2018-05-21T18:51:10.218Z,2.50
2018-05-21T18:53:37.836Z,2.30
2018-05-21T18:56:05.473Z,2.73
2018-05-21T18:58:33.113Z,2.73
2018-05-21T19:01:00.748Z,3.03
2018-05-21T19:03:28.327Z,3.20
2018-05-21T19:05:55.970Z,2.90
2018-05-21T19:08:23.551Z,2.37
2018-05-21T19:10:51.176Z,3.00
2018-05-21T19:13:18.745Z,2.60
2018-05-21T19:15:46.388Z,2.77
2018-05-21T19:18:13.990Z,2.80
2018-05-21T19:20:41.622Z,3.10
2018-05-21T19:23:09.174Z,3.10
2018-05-21T19:25:36.737Z,3.00
2018-05-21T19:28:04.359Z,3.30
2018-05-21T19:30:31.924Z,2.93
2018-05-21T19:32:59.488Z,3.50
2018-05-21T19:35:27.068Z,3.57
2018-05-21T19:37:54.632Z,3.23
2018-05-21T19:40:22.234Z,3.10
2018-05-21T19:42:49.802Z,3.50
2018-05-21T19:45:17.486Z,3.87
2018-05-21T19:47:45.050Z,3.63
2018-05-21T19:50:12.617Z,3.10
2018-05-21T19:52:40.249Z,3.43
2018-05-21T19:55:07.800Z,4.17
2018-05-21T19:57:35.372Z,3.30
2018-05-21T20:00:02.967Z,3.40
2018-05-21T20:02:30.665Z,3.50
2018-05-21T20:04:58.225Z,3.13
2018-05-21T20:07:25.858Z,3.47
2018-05-21T20:09:53.590Z,2.80
2018-05-21T20:12:21.234Z,3.03
2018-05-21T20:14:48.816Z,2.80
2018-05-21T20:17:16.381Z,3.63
2018-05-21T20:19:44.017Z,3.00
2018-05-21T20:22:11.592Z,3.90
2018-05-21T20:24:39.160Z,3.73
2018-05-21T20:27:06.802Z,4.00
2018-05-21T20:29:34.429Z,4.17
2018-05-21T20:32:01.981Z,3.93
2018-05-21T20:34:29.540Z,3.20
2018-05-21T20:36:57.158Z,3.80
2018-05-21T20:39:24.777Z,3.73
2018-05-21T20:41:52.322Z,4.07
2018-05-21T20:44:19.945Z,3.57
2018-05-21T20:46:47.517Z,4.10
2018-05-21T20:49:15.132Z,3.77
2018-05-21T20:51:42.702Z,4.50
2018-05-21T20:54:10.269Z,4.87
2018-05-21T20:56:37.841Z,4.70
2018-05-21T20:59:05.471Z,4.33
2018-05-21T21:01:33.106Z,4.60
2018-05-21T21:04:00.737Z,3.90
2018-05-21T21:06:28.300Z,4.90
2018-05-21T21:08:55.878Z,3.90
2018-05-21T21:11:23.443Z,4.53
2018-05-21T21:13:51.022Z,4.73
2018-05-21T21:16:18.585Z,4.37
2018-05-21T21:18:46.147Z,4.20
2018-05-21T21:21:13.792Z,4.90
2018-05-21T21:23:41.356Z,4.53
2018-05-21T21:26:08.986Z,4.47
2018-05-21T21:28:36.609Z,4.53
2018-05-21T21:31:04.289Z,4.40
2018-05-21T21:33:31.848Z,3.93
2018-05-21T21:35:59.404Z,5.70
2018-05-21T21:38:26.994Z,3.80
2018-05-21T21:40:54.625Z,4.37
2018-05-21T21:43:22.204Z,5.10
2018-05-21T21:45:49.768Z,4.43
2018-05-21T21:48:17.462Z,4.23
2018-05-21T21:50:45.023Z,4.03
2018-05-21T21:53:12.584Z,4.70
2018-05-21T21:55:40.214Z,4.37
2018-05-21T21:58:07.766Z,4.30
2018-05-21T22:00:35.442Z,4.80
2018-05-21T22:03:02.990Z,5.00
2018-05-21T22:05:30.548Z,5.53
2018-05-21T22:07:58.119Z,4.87
2018-05-21T22:10:25.737Z,4.63
2018-05-21T22:12:53.417Z,4.40
2018-05-21T22:15:21.045Z,4.00
2018-05-21T22:17:48.612Z,4.60
2018-05-21T22:20:16.189Z,4.23
2018-05-21T22:22:43.812Z,4.30
2018-05-21T22:25:11.450Z,3.70
2018-05-21T22:27:39.020Z,3.80
2018-05-21T22:30:06.647Z,4.23
2018-05-21T22:32:34.225Z,4.90
2018-05-21T22:35:01.790Z,3.70
2018-05-21T22:37:29.425Z,3.90
2018-05-21T22:39:57.045Z,3.63
2018-05-21T22:42:24.929Z,5.83
2018-05-21T22:44:52.554Z,4.83
2018-05-21T22:47:20.181Z,4.00
2018-05-21T22:49:47.751Z,4.20
2018-05-21T22:52:15.371Z,4.50
2018-05-21T22:54:43.009Z,4.10
2018-05-21T22:57:10.648Z,4.67
2018-05-21T22:59:38.215Z,4.70
2018-05-21T23:04:38.612Z,5.10
2018-05-21T23:07:06.181Z,4.03
2018-05-21T23:09:33.740Z,4.47
2018-05-21T23:12:01.375Z,4.33
2018-05-21T23:14:29.023Z,5.00
2018-05-21T23:16:56.620Z,4.40
2018-05-21T23:19:24.190Z,3.87
2018-05-21T23:21:51.812Z,4.10
2018-05-21T23:24:19.446Z,4.33
2018-05-21T23:26:47.073Z,3.93
2018-05-21T23:29:14.652Z,4.23
2018-05-21T23:31:42.211Z,4.47
2018-05-21T23:34:09.783Z,4.40
2018-05-21T23:36:37.353Z,5.40
2018-05-21T23:39:05.776Z,4.50
2018-05-21T23:41:33.449Z,4.70
2018-05-21T23:44:01.084Z,4.70
2018-05-21T23:46:28.652Z,4.07
2018-05-21T23:48:56.312Z,3.80
2018-05-21T23:51:23.872Z,4.53
2018-05-21T23:53:51.494Z,5.23
2018-05-21T23:56:19.072Z,4.57
2018-05-21T23:58:46.642Z,5.17
